Time;durP1;ratioP1;P1;durP2;ratioP2;P2;SDS_P1;SDS_P2;PMS_P1;PMS_P2;Temp;Humidity;BMP_temperature;BMP_pressure;BME280_temperature;BME280_humidity;BME280_pressure;Samples;Min_cycle;Max_cycle;Signal;HPM_P1;HPM_P2
2023/03/02 00:27:14;;;;;;;32.63;22.63;;;3.30;86.50;;;;;;4971068;28;20256;-72
2023/03/02 00:30:00;;;;;;;35.95;22.63;;;3.30;86.40;;;;;;4970721;28;20330;-72
2023/03/02 00:32:45;;;;;;;32.78;21.45;;;3.40;85.50;;;;;;4967391;28;20249;-73
2023/03/02 00:35:31;;;;;;;30.80;20.25;;;3.20;87.90;;;;;;4967234;28;20233;-72
2023/03/02 00:38:17;;;;;;;32.33;21.03;;;3.10;89.00;;;;;;4969818;28;20208;-72
2023/03/02 00:41:03;;;;;;;32.97;21.50;;;3.00;89.50;;;;;;4969112;28;20455;-74
2023/03/02 00:43:50;;;;;;;33.65;21.75;;;2.90;90.00;;;;;;4970141;28;20634;-72
2023/03/02 00:46:36;;;;;;;33.70;22.90;;;2.90;89.60;;;;;;4966397;28;20241;-73
2023/03/02 00:49:22;;;;;;;31.08;21.45;;;2.80;89.90;;;;;;4965675;28;20244;-73
2023/03/02 00:52:07;;;;;;;34.10;21.90;;;2.70;90.00;;;;;;4970953;28;20205;-72
2023/03/02 00:54:53;;;;;;;32.22;22.73;;;2.50;90.40;;;;;;4971545;28;20219;-72
2023/03/02 00:57:39;;;;;;;31.50;22.00;;;2.50;91.40;;;;;;4966880;28;20252;-72
2023/03/02 01:00:27;;;;;;;35.25;22.83;;;2.50;92.10;;;;;;4962733;28;20223;-72
2023/03/02 01:03:12;;;;;;;34.72;24.52;;;2.40;92.10;;;;;;4969344;28;20262;-73
2023/03/02 01:05:59;;;;;;;33.22;21.98;;;2.30;93.00;;;;;;4970482;28;20248;-72
2023/03/02 01:08:45;;;;;;;32.00;22.65;;;2.30;94.80;;;;;;4968506;28;20293;-72
2023/03/02 01:11:31;;;;;;;30.90;21.38;;;2.40;94.90;;;;;;4966988;28;20575;-72
2023/03/02 01:14:17;;;;;;;34.83;22.90;;;2.40;94.90;;;;;;4970321;28;20257;-73
2023/03/02 01:17:05;;;;;;;33.50;22.53;;;2.40;94.90;;;;;;4967976;28;20323;-72
2023/03/02 01:19:50;;;;;;;37.58;22.08;;;2.30;95.00;;;;;;4962544;28;20498;-72
2023/03/02 01:22:35;;;;;;;34.30;23.90;;;2.30;94.90;;;;;;4967604;28;20220;-73
2023/03/02 01:25:21;;;;;;;32.70;23.35;;;2.20;95.60;;;;;;4967119;28;20212;-72
2023/03/02 01:28:06;;;;;;;30.65;20.58;;;2.20;96.30;;;;;;4967568;28;20232;-72
2023/03/02 01:30:53;;;;;;;35.90;23.35;;;2.30;96.50;;;;;;4964532;28;20356;-72
2023/03/02 01:33:39;;;;;;;35.72;23.65;;;2.10;97.30;;;;;;4966940;28;20205;-72
2023/03/02 01:36:25;;;;;;;38.20;24.35;;;2.10;98.20;;;;;;4965966;28;20299;-72
2023/03/02 01:39:14;;;;;;;34.35;23.05;;;2.10;99.30;;;;;;4965156;28;20201;-74
2023/03/02 01:42:00;;;;;;;34.25;23.38;;;2.10;99.90;;;;;;4967733;28;20228;-73
2023/03/02 01:44:48;;;;;;;36.30;24.58;;;2.00;99.90;;;;;;4964136;28;20217;-75
2023/03/02 01:47:36;;;;;;;34.65;21.65;;;2.10;99.90;;;;;;4969073;28;20290;-73
2023/03/02 01:50:25;;;;;;;37.38;23.55;;;2.10;99.90;;;;;;4969036;28;20221;-73
2023/03/02 01:53:10;;;;;;;35.78;23.27;;;2.00;99.90;;;;;;4969824;28;20205;-72
2023/03/02 01:55:57;;;;;;;36.08;24.33;;;1.90;99.90;;;;;;4969100;28;20220;-73
2023/03/02 01:58:43;;;;;;;35.42;24.60;;;2.00;99.90;;;;;;4963715;28;20231;-73
2023/03/02 02:01:32;;;;;;;35.95;23.45;;;2.10;99.90;;;;;;4963906;28;20289;-73
2023/03/02 02:04:18;;;;;;;39.22;25.15;;;2.20;99.90;;;;;;4970651;28;20229;-73
2023/03/02 02:07:06;;;;;;;35.17;23.30;;;2.30;99.90;;;;;;4966124;28;20324;-73
2023/03/02 02:09:53;;;;;;;42.55;26.65;;;2.30;99.90;;;;;;4963719;28;20227;-73
2023/03/02 02:12:38;;;;;;;39.08;23.27;;;2.40;99.90;;;;;;4963158;28;20216;-72
2023/03/02 02:15:24;;;;;;;40.78;24.90;;;2.50;99.90;;;;;;4966960;28;20331;-73
2023/03/02 02:18:09;;;;;;;32.88;22.77;;;2.60;99.90;;;;;;4966666;28;20232;-73
2023/03/02 02:20:56;;;;;;;34.42;22.52;;;2.70;99.90;;;;;;4966490;28;20259;-71
2023/03/02 02:23:49;;;;;;;37.45;24.63;;;2.80;99.90;;;;;;4970528;28;20256;-73
2023/03/02 02:26:41;;;;;;;37.83;24.35;;;3.00;99.80;;;;;;4969937;28;20237;-73
2023/03/02 02:29:31;;;;;;;34.22;22.67;;;3.10;99.00;;;;;;4964984;28;20208;-73
2023/03/02 02:32:20;;;;;;;33.33;23.20;;;3.20;98.70;;;;;;4967904;28;20352;-73
2023/03/02 02:35:12;;;;;;;38.15;23.30;;;3.20;97.80;;;;;;4963744;28;20204;-73
2023/03/02 02:38:02;;;;;;;35.92;22.55;;;3.30;97.00;;;;;;4958617;28;20372;-72
2023/03/02 02:40:52;;;;;;;38.67;24.50;;;3.40;96.40;;;;;;4969117;28;20217;-73
2023/03/02 02:43:39;;;;;;;38.17;22.92;;;3.50;95.70;;;;;;4967404;28;20364;-73
2023/03/02 02:46:25;;;;;;;34.65;23.10;;;3.50;94.60;;;;;;4969093;28;20236;-71
2023/03/02 02:49:25;;;;;;;33.13;22.30;;;3.40;94.60;;;;;;4959886;28;20718;-72
2023/03/02 02:52:14;;;;;;;33.47;22.90;;;3.20;95.10;;;;;;4968797;28;20341;-73
2023/03/02 02:55:00;;;;;;;35.17;22.48;;;3.30;94.90;;;;;;4966230;28;20282;-72
2023/03/02 02:57:46;;;;;;;34.92;21.70;;;3.30;95.40;;;;;;4964101;28;20233;-73
2023/03/02 03:00:33;;;;;;;35.28;23.08;;;3.50;95.10;;;;;;4965547;28;20213;-73
2023/03/02 03:03:29;;;;;;;37.08;22.98;;;3.40;95.00;;;;;;4967299;28;20233;-72
2023/03/02 03:06:19;;;;;;;35.78;21.02;;;3.40;94.80;;;;;;4967528;28;20988;-73
2023/03/02 03:09:06;;;;;;;32.42;21.33;;;3.40;94.90;;;;;;4966986;28;20209;-71
2023/03/02 03:11:54;;;;;;;35.88;23.48;;;3.30;95.20;;;;;;4972361;28;20761;-73
2023/03/02 03:14:41;;;;;;;33.25;22.60;;;3.40;94.90;;;;;;4972322;28;20203;-72
2023/03/02 03:17:28;;;;;;;33.85;22.23;;;3.40;94.80;;;;;;4963637;28;20243;-73
2023/03/02 03:20:16;;;;;;;34.00;22.67;;;3.50;94.20;;;;;;4972466;28;20209;-73
2023/03/02 03:23:02;;;;;;;33.38;21.40;;;3.50;93.70;;;;;;4970916;28;20319;-72
2023/03/02 03:25:48;;;;;;;40.22;23.02;;;3.60;93.40;;;;;;4967768;28;20226;-73
2023/03/02 03:28:34;;;;;;;32.67;22.08;;;3.60;92.90;;;;;;4968217;28;20317;-73
2023/03/02 03:31:19;;;;;;;33.40;22.35;;;3.60;92.20;;;;;;4974684;28;20213;-73
2023/03/02 03:34:08;;;;;;;34.42;21.80;;;3.60;92.30;;;;;;4971783;28;20204;-73
2023/03/02 03:36:53;;;;;;;36.53;21.85;;;3.60;92.20;;;;;;4964778;28;20237;-73
2023/03/02 03:39:40;;;;;;;31.52;21.52;;;3.60;92.20;;;;;;4967955;28;20270;-73
2023/03/02 03:42:26;;;;;;;34.83;22.63;;;3.60;92.00;;;;;;4970023;28;20308;-72
2023/03/02 03:45:11;;;;;;;37.67;22.50;;;3.60;91.90;;;;;;4970655;28;20268;-73
2023/03/02 03:47:57;;;;;;;35.63;21.73;;;3.70;91.60;;;;;;4968145;28;21002;-73
2023/03/02 03:50:45;;;;;;;40.20;23.10;;;3.60;91.60;;;;;;4969447;28;20448;-73
2023/03/02 03:53:30;;;;;;;34.70;22.57;;;3.50;92.00;;;;;;4967850;28;20260;-72
2023/03/02 03:56:16;;;;;;;37.13;22.40;;;3.40;92.60;;;;;;4970466;28;20564;-72
2023/03/02 03:59:06;;;;;;;35.33;22.15;;;3.40;92.70;;;;;;4970092;28;20683;-73
2023/03/02 04:01:55;;;;;;;36.20;23.63;;;3.40;92.80;;;;;;4967955;28;20220;-73
2023/03/02 04:04:40;;;;;;;34.38;21.98;;;3.50;92.70;;;;;;4969425;28;20225;-73
2023/03/02 04:07:27;;;;;;;34.70;21.17;;;3.50;92.60;;;;;;4964038;28;20233;-72
2023/03/02 04:10:13;;;;;;;34.67;21.60;;;3.50;92.60;;;;;;4971248;28;20452;-73
2023/03/02 04:12:59;;;;;;;32.97;22.80;;;3.50;92.70;;;;;;4967645;28;20683;-72
2023/03/02 04:15:45;;;;;;;36.70;23.48;;;3.30;92.80;;;;;;4963529;28;20225;-73
2023/03/02 04:18:30;;;;;;;37.65;23.17;;;3.20;92.80;;;;;;4967930;28;20416;-72
2023/03/02 04:21:16;;;;;;;37.15;22.48;;;3.20;93.00;;;;;;4971130;28;20204;-73
2023/03/02 04:24:04;;;;;;;38.15;22.15;;;3.30;93.00;;;;;;4969775;28;20224;-73
2023/03/02 04:26:50;;;;;;;32.10;20.75;;;3.30;93.00;;;;;;4965677;28;20324;-73
2023/03/02 04:29:36;;;;;;;29.77;20.60;;;3.20;93.00;;;;;;4969440;28;20253;-73
2023/03/02 04:32:21;;;;;;;33.80;21.80;;;3.10;93.30;;;;;;4965690;28;20256;-73
2023/03/02 04:35:08;;;;;;;31.92;19.90;;;3.00;93.70;;;;;;4970606;28;20224;-72
2023/03/02 04:37:54;;;;;;;32.63;21.35;;;3.00;94.20;;;;;;4968673;28;20245;-73
2023/03/02 04:40:41;;;;;;;33.78;22.23;;;3.00;94.40;;;;;;4966814;28;20204;-72
2023/03/02 04:43:27;;;;;;;32.25;21.73;;;3.10;94.20;;;;;;4970668;28;20627;-73
2023/03/02 04:46:15;;;;;;;33.95;21.75;;;3.10;93.90;;;;;;4968215;28;20245;-73
2023/03/02 04:49:01;;;;;;;30.40;21.30;;;3.20;93.50;;;;;;4969419;28;20201;-73
2023/03/02 04:51:48;;;;;;;32.53;21.35;;;3.30;93.30;;;;;;4970078;28;20291;-73
2023/03/02 04:54:34;;;;;;;28.80;19.80;;;3.20;93.40;;;;;;4966506;28;20281;-73
2023/03/02 04:57:21;;;;;;;31.65;20.92;;;3.10;93.70;;;;;;4967541;28;20972;-71
2023/03/02 05:00:09;;;;;;;36.80;22.05;;;3.00;94.40;;;;;;4971828;28;20212;-73
2023/03/02 05:02:57;;;;;;;33.05;20.60;;;3.00;94.50;;;;;;4968071;28;20209;-73
2023/03/02 05:05:42;;;;;;;39.08;22.95;;;2.80;94.90;;;;;;4966600;28;20674;-73
2023/03/02 05:08:28;;;;;;;36.58;22.10;;;2.70;95.10;;;;;;4970276;28;20253;-73
2023/03/02 05:11:21;;;;;;;27.50;18.83;;;2.60;95.30;;;;;;4964434;28;20220;-73
2023/03/02 05:14:10;;;;;;;36.50;21.27;;;2.50;96.70;;;;;;4969162;28;20487;-71
2023/03/02 05:16:56;;;;;;;31.00;21.30;;;2.40;97.60;;;;;;4962250;28;20291;-73
2023/03/02 05:19:42;;;;;;;33.50;21.85;;;2.30;98.40;;;;;;4969507;28;20224;-72
2023/03/02 05:22:28;;;;;;;32.85;21.30;;;2.20;98.80;;;;;;4969746;28;20209;-72
2023/03/02 05:25:14;;;;;;;32.67;21.92;;;2.10;99.70;;;;;;4965059;28;20237;-72
2023/03/02 05:28:00;;;;;;;36.15;21.92;;;2.10;99.90;;;;;;4970188;28;20252;-71
2023/03/02 05:30:48;;;;;;;35.55;24.58;;;2.10;99.90;;;;;;4965716;28;20340;-72
2023/03/02 05:33:34;;;;;;;33.72;20.40;;;2.00;99.90;;;;;;4962375;28;20211;-72
2023/03/02 05:36:20;;;;;;;33.95;23.25;;;2.10;99.90;;;;;;4963704;28;20553;-72
2023/03/02 05:39:07;;;;;;;36.60;22.25;;;2.20;99.90;;;;;;4969327;28;20529;-72
2023/03/02 05:41:52;;;;;;;37.33;23.60;;;2.10;99.90;;;;;;4967252;28;20208;-72
2023/03/02 05:44:38;;;;;;;30.08;20.77;;;2.10;99.90;;;;;;4967885;28;20228;-72
2023/03/02 05:47:25;;;;;;;36.63;21.92;;;2.10;99.90;;;;;;4966986;28;20236;-72
2023/03/02 05:50:11;;;;;;;35.60;21.80;;;2.10;99.90;;;;;;4969323;28;20687;-73
2023/03/02 05:52:58;;;;;;;40.65;22.75;;;2.10;99.90;;;;;;4971099;28;20219;-72
2023/03/02 05:55:44;;;;;;;33.03;20.02;;;2.10;99.90;;;;;;4964389;28;20247;-72
2023/03/02 05:58:29;;;;;;;32.05;20.55;;;2.10;99.90;;;;;;4966170;28;20572;-72
2023/03/02 06:01:15;;;;;;;38.50;20.08;;;2.20;99.90;;;;;;4968013;28;20304;-72
2023/03/02 06:04:02;;;;;;;32.50;21.40;;;2.20;99.90;;;;;;4964643;28;20593;-72
2023/03/02 06:06:48;;;;;;;37.25;22.25;;;2.10;99.90;;;;;;4962418;28;20332;-72
2023/03/02 06:09:34;;;;;;;34.13;20.65;;;2.20;99.90;;;;;;4963749;28;20580;-71
2023/03/02 06:12:19;;;;;;;30.60;21.05;;;2.10;99.90;;;;;;4969320;28;20690;-72
2023/03/02 06:15:07;;;;;;;37.60;22.10;;;2.10;99.90;;;;;;4960476;28;20208;-72
2023/03/02 06:17:53;;;;;;;34.05;21.42;;;2.00;99.90;;;;;;4968736;28;20298;-72
2023/03/02 06:20:40;;;;;;;35.10;21.58;;;1.90;99.90;;;;;;4966347;28;20288;-72
2023/03/02 06:23:26;;;;;;;39.33;21.67;;;2.00;99.90;;;;;;4967365;28;20282;-72
2023/03/02 06:26:12;;;;;;;34.38;21.10;;;2.10;99.90;;;;;;4958189;28;20222;-72
2023/03/02 06:28:58;;;;;;;31.65;19.50;;;2.10;99.90;;;;;;4967457;28;20200;-72
2023/03/02 06:31:43;;;;;;;40.50;21.10;;;2.20;99.90;;;;;;4962414;28;20208;-72
2023/03/02 06:34:29;;;;;;;27.38;18.80;;;2.40;99.90;;;;;;4963950;28;20263;-72
2023/03/02 06:37:16;;;;;;;28.15;19.38;;;2.60;99.90;;;;;;4968672;28;20240;-72
2023/03/02 06:40:04;;;;;;;35.50;20.60;;;2.70;99.60;;;;;;4966605;28;20302;-72
2023/03/02 06:42:49;;;;;;;30.90;21.73;;;2.80;98.60;;;;;;4968286;28;20310;-72
2023/03/02 06:45:36;;;;;;;30.23;19.80;;;2.80;98.30;;;;;;4968550;28;20248;-73
2023/03/02 06:48:21;;;;;;;31.65;20.38;;;2.90;98.20;;;;;;4971689;28;20961;-71
2023/03/02 06:51:07;;;;;;;29.60;19.33;;;3.00;97.70;;;;;;4973152;28;20225;-72
2023/03/02 06:53:54;;;;;;;32.50;19.58;;;3.20;96.80;;;;;;4970001;28;20584;-72
2023/03/02 06:56:40;;;;;;;33.13;19.05;;;3.10;96.20;;;;;;4967254;28;20229;-72
2023/03/02 06:59:26;;;;;;;39.42;20.48;;;3.20;96.20;;;;;;4968481;28;20303;-71
2023/03/02 07:02:12;;;;;;;36.67;20.50;;;3.20;96.40;;;;;;4970846;28;20212;-72
2023/03/02 07:04:57;;;;;;;31.63;20.08;;;3.20;96.00;;;;;;4966424;28;20484;-72
2023/03/02 07:07:43;;;;;;;37.88;22.35;;;3.20;95.80;;;;;;4967215;28;20224;-72
2023/03/02 07:10:30;;;;;;;32.42;20.45;;;3.20;95.90;;;;;;4970997;28;20815;-72
2023/03/02 07:13:16;;;;;;;38.72;20.38;;;3.30;96.00;;;;;;4970485;28;20562;-72
2023/03/02 07:16:06;;;;;;;31.30;18.48;;;3.40;95.50;;;;;;4970015;28;20206;-72
2023/03/02 07:18:51;;;;;;;44.50;18.85;;;3.50;95.20;;;;;;4975109;28;20295;-71
2023/03/02 07:21:37;;;;;;;33.13;19.08;;;3.60;94.90;;;;;;4969597;28;20686;-73
2023/03/02 07:24:22;;;;;;;28.65;18.00;;;3.70;94.40;;;;;;4963335;28;20243;-71
2023/03/02 07:27:10;;;;;;;27.70;18.10;;;3.80;94.30;;;;;;4971944;28;20228;-71
2023/03/02 07:29:55;;;;;;;33.00;19.52;;;3.90;94.10;;;;;;4969254;28;20461;-71
2023/03/02 07:32:41;;;;;;;29.73;18.57;;;3.90;93.80;;;;;;4973113;28;20260;-71
2023/03/02 07:35:27;;;;;;;28.42;19.90;;;4.00;93.00;;;;;;4966523;28;20448;-72
2023/03/02 07:38:12;;;;;;;29.50;18.60;;;4.10;93.40;;;;;;4971793;28;20304;-72
2023/03/02 07:40:58;;;;;;;28.08;17.05;;;4.20;93.10;;;;;;4968432;28;20544;-71
2023/03/02 07:43:45;;;;;;;28.93;18.80;;;4.30;92.60;;;;;;4961268;28;20214;-71
2023/03/02 07:46:30;;;;;;;27.67;18.47;;;4.40;92.30;;;;;;4966948;28;20484;-72
2023/03/02 07:49:16;;;;;;;31.07;19.30;;;4.50;91.80;;;;;;4981507;23;20929;-86
2023/03/02 07:52:03;;;;;;;28.77;19.17;;;4.60;91.50;;;;;;4970574;28;20499;-85
2023/03/02 07:54:48;;;;;;;33.15;18.40;;;4.70;91.30;;;;;;4960065;28;20989;-85
2023/03/02 07:57:34;;;;;;;25.58;17.83;;;4.80;90.70;;;;;;4964165;28;20241;-86
2023/03/02 08:00:22;;;;;;;33.15;19.10;;;4.80;90.80;;;;;;4951536;28;20230;-86
2023/03/02 08:03:07;;;;;;;37.00;20.20;;;4.80;90.10;;;;;;4953327;28;20205;-86
2023/03/02 08:05:53;;;;;;;31.87;18.80;;;4.90;89.80;;;;;;4951071;29;20250;-86
2023/03/02 08:08:39;;;;;;;27.40;18.30;;;4.90;88.30;;;;;;4949948;29;20420;-85
2023/03/02 08:11:25;;;;;;;29.08;18.92;;;5.10;87.10;;;;;;4954066;29;20461;-86
2023/03/02 08:14:11;;;;;;;32.77;17.70;;;5.10;87.60;;;;;;4950889;28;20213;-86
2023/03/02 08:16:58;;;;;;;29.90;18.25;;;5.20;88.40;;;;;;4958805;28;20436;-86
2023/03/02 08:19:44;;;;;;;31.80;18.00;;;5.30;86.40;;;;;;4950451;29;20691;-86
2023/03/02 08:22:29;;;;;;;30.77;18.35;;;5.30;87.40;;;;;;4946565;28;20520;-86
2023/03/02 08:25:15;;;;;;;28.67;16.40;;;5.40;86.50;;;;;;4951501;28;20365;-86
2023/03/02 08:28:01;;;;;;;29.67;17.90;;;5.50;85.50;;;;;;4941913;29;20230;-86
2023/03/02 08:30:55;;;;;;;25.60;18.07;;;5.60;83.60;;;;;;4950473;29;20288;-86
2023/03/02 08:33:42;;;;;;;28.07;18.10;;;5.70;84.40;;;;;;4945597;28;20501;-87
2023/03/02 08:36:28;;;;;;;33.13;18.13;;;5.80;82.40;;;;;;4953469;28;20443;-87
2023/03/02 08:39:14;;;;;;;29.53;17.43;;;5.90;81.60;;;;;;4951084;29;20529;-86
2023/03/02 08:41:59;;;;;;;30.23;17.87;;;6.00;81.90;;;;;;4951299;29;20429;-86
2023/03/02 08:44:45;;;;;;;28.67;17.03;;;6.10;81.10;;;;;;4950539;28;20469;-87
2023/03/02 08:47:31;;;;;;;27.00;17.97;;;6.20;78.90;;;;;;4951206;29;20457;-86
2023/03/02 08:50:18;;;;;;;25.33;16.63;;;6.30;77.60;;;;;;4954349;28;20820;-86
2023/03/02 08:53:04;;;;;;;25.47;16.40;;;6.40;76.20;;;;;;4949034;28;20459;-86
2023/03/02 08:55:49;;;;;;;26.60;17.07;;;6.50;77.40;;;;;;4945911;29;20655;-86
2023/03/02 08:58:35;;;;;;;26.53;16.60;;;6.60;75.20;;;;;;4947279;29;20671;-86
2023/03/02 09:01:23;;;;;;;38.83;18.00;;;6.70;75.60;;;;;;4946399;29;20513;-86
2023/03/02 09:04:10;;;;;;;27.70;17.20;;;6.70;74.20;;;;;;4952791;28;20530;-87
2023/03/02 09:06:57;;;;;;;26.83;16.93;;;6.80;73.80;;;;;;4961024;28;20453;-87
2023/03/02 09:09:43;;;;;;;34.30;17.83;;;6.90;73.70;;;;;;4948988;29;20465;-86
2023/03/02 09:12:30;;;;;;;20.87;15.17;;;7.00;73.10;;;;;;4949559;28;20848;-87
2023/03/02 09:15:16;;;;;;;32.80;17.10;;;7.20;73.10;;;;;;4957594;28;20448;-86
2023/03/02 09:18:01;;;;;;;27.57;17.10;;;7.30;71.70;;;;;;4951904;29;20400;-86
2023/03/02 09:20:50;;;;;;;30.73;17.13;;;7.50;69.70;;;;;;4950264;29;20417;-87
2023/03/02 09:23:37;;;;;;;26.57;16.07;;;7.60;68.30;;;;;;4945586;28;20464;-86
2023/03/02 09:26:23;;;;;;;29.73;18.23;;;7.70;66.40;;;;;;4953421;29;20871;-87
2023/03/02 09:29:09;;;;;;;24.47;16.40;;;7.80;65.70;;;;;;4951197;29;20421;-86
2023/03/02 09:31:55;;;;;;;25.50;16.60;;;8.00;65.80;;;;;;4952438;28;20405;-86
2023/03/02 09:34:40;;;;;;;26.80;15.83;;;8.10;65.10;;;;;;4948435;29;20488;-87
2023/03/02 09:37:28;;;;;;;28.50;15.63;;;8.30;63.70;;;;;;4945860;29;20993;-86
2023/03/02 09:40:20;;;;;;;27.70;15.17;;;8.50;61.20;;;;;;4951064;29;20567;-86
2023/03/02 09:43:25;;;;;;;36.47;15.70;;;8.60;60.90;;;;;;4941607;28;20426;-86
2023/03/02 09:46:23;;;;;;;27.47;16.87;;;8.70;58.60;;;;;;4949448;29;20596;-86
2023/03/02 09:49:21;;;;;;;27.30;16.73;;;8.80;57.90;;;;;;4952509;28;20428;-86
2023/03/02 09:52:16;;;;;;;21.50;15.00;;;8.90;58.70;;;;;;4951718;28;20466;-86
2023/03/02 09:55:11;;;;;;;25.70;16.10;;;9.00;58.60;;;;;;4964266;28;20445;-86
2023/03/02 09:58:03;;;;;;;28.80;16.03;;;9.10;56.10;;;;;;4957728;28;20536;-86
2023/03/02 10:00:51;;;;;;;29.03;16.10;;;9.20;55.20;;;;;;4954222;29;20822;-86
2023/03/02 10:03:46;;;;;;;26.70;16.43;;;9.20;53.20;;;;;;4952529;28;20493;-86
2023/03/02 10:06:31;;;;;;;25.07;14.90;;;9.20;52.10;;;;;;4946306;29;20561;-86
2023/03/02 10:09:17;;;;;;;29.90;15.20;;;9.20;53.60;;;;;;4951874;29;20528;-86
2023/03/02 10:12:20;;;;;;;22.83;14.87;;;9.20;53.80;;;;;;4949862;28;20432;-86
2023/03/02 10:15:14;;;;;;;23.23;15.73;;;9.20;54.40;;;;;;4952618;29;20438;-86
2023/03/02 10:18:11;;;;;;;29.37;16.90;;;9.30;52.60;;;;;;4951757;29;20454;-86
2023/03/02 10:21:01;;;;;;;28.10;15.47;;;9.40;52.70;;;;;;4949302;29;20536;-86
2023/03/02 10:23:52;;;;;;;25.87;15.43;;;9.60;51.50;;;;;;4947884;28;20432;-86
2023/03/02 10:26:40;;;;;;;22.13;14.90;;;9.70;50.90;;;;;;4951511;29;20469;-86
2023/03/02 10:29:44;;;;;;;26.13;17.10;;;9.90;49.50;;;;;;4946651;29;20780;-86
2023/03/02 10:32:35;;;;;;;29.47;17.30;;;9.90;50.30;;;;;;4941057;28;20433;-86
2023/03/02 10:35:23;;;;;;;26.27;16.27;;;9.90;48.80;;;;;;4952752;29;20927;-86
2023/03/02 10:38:13;;;;;;;21.63;15.40;;;10.00;48.40;;;;;;4949898;29;20419;-86
2023/03/02 10:41:01;;;;;;;29.37;17.30;;;10.20;48.50;;;;;;4949903;28;20465;-86
2023/03/02 10:43:50;;;;;;;25.10;17.07;;;10.40;47.50;;;;;;4960356;28;20493;-86
2023/03/02 10:46:41;;;;;;;23.30;15.40;;;10.50;46.40;;;;;;4952763;28;20581;-86
2023/03/02 10:49:30;;;;;;;26.43;16.90;;;10.80;43.80;;;;;;4947694;29;20960;-87
2023/03/02 10:52:18;;;;;;;22.23;15.20;;;10.90;43.60;;;;;;4949578;28;20450;-86
2023/03/02 10:55:05;;;;;;;36.13;15.80;;;11.10;42.80;;;;;;4950115;29;20526;-87
2023/03/02 10:58:02;;;;;;;22.13;15.07;;;11.20;43.90;;;;;;4949948;29;20453;-87
2023/03/02 11:00:57;;;;;;;24.57;14.53;;;11.50;40.50;;;;;;4943608;28;20678;-86
2023/03/02 11:03:42;;;;;;;26.50;15.97;;;11.60;40.60;;;;;;4947657;29;20532;-86
2023/03/02 11:06:30;;;;;;;21.33;14.70;;;11.70;38.90;;;;;;4950698;29;20456;-87
2023/03/02 11:09:16;;;;;;;20.10;13.70;;;11.70;39.00;;;;;;4948954;29;20523;-86
2023/03/02 11:12:01;;;;;;;28.63;16.33;;;11.80;38.50;;;;;;4945020;28;20867;-87
2023/03/02 11:14:47;;;;;;;25.70;15.27;;;11.80;37.60;;;;;;4947291;29;20993;-86
2023/03/02 11:17:36;;;;;;;22.47;14.73;;;11.90;37.30;;;;;;4952148;29;20425;-86
2023/03/02 11:20:25;;;;;;;25.73;15.33;;;11.90;37.50;;;;;;4950813;28;20433;-86
2023/03/02 11:23:30;;;;;;;21.73;14.90;;;12.00;35.90;;;;;;4948801;29;20450;-87
2023/03/02 11:26:21;;;;;;;21.93;14.80;;;12.00;35.60;;;;;;4954323;28;20464;-88
2023/03/02 11:29:17;;;;;;;21.70;15.03;;;12.10;38.10;;;;;;4959168;28;20415;-88
2023/03/02 11:32:11;;;;;;;22.10;14.20;;;12.20;35.30;;;;;;4952941;28;20446;-87
2023/03/02 11:35:00;;;;;;;24.63;14.37;;;12.20;35.30;;;;;;4957018;28;20433;-86
2023/03/02 11:37:50;;;;;;;25.57;16.20;;;12.20;35.80;;;;;;4954919;28;21004;-87
2023/03/02 11:40:45;;;;;;;22.70;13.83;;;12.20;38.30;;;;;;4953574;28;20532;-87
2023/03/02 11:43:30;;;;;;;25.10;14.93;;;12.40;36.60;;;;;;4964782;28;20453;-87
2023/03/02 11:46:23;;;;;;;30.20;16.80;;;12.40;36.20;;;;;;4951380;28;20486;-87
2023/03/02 11:49:16;;;;;;;27.33;14.27;;;12.50;36.40;;;;;;4954693;29;20529;-87
2023/03/02 11:52:02;;;;;;;28.20;14.07;;;12.70;35.80;;;;;;4951819;28;20488;-86
2023/03/02 11:54:53;;;;;;;22.60;15.10;;;12.70;35.60;;;;;;4949688;29;20491;-87
2023/03/02 11:57:47;;;;;;;30.13;14.00;;;12.90;34.20;;;;;;4960225;28;20461;-86
2023/03/02 12:00:36;;;;;;;23.67;14.80;;;13.10;32.70;;;;;;4961847;28;20574;-87
2023/03/02 12:03:35;;;;;;;21.50;14.53;;;13.20;32.50;;;;;;4960312;28;20429;-87
2023/03/02 12:06:37;;;;;;;19.80;14.20;;;13.20;34.50;;;;;;4959996;28;21095;-84
2023/03/02 12:09:37;;;;;;;24.20;15.03;;;13.40;32.30;;;;;;4957487;28;20585;-87
2023/03/02 12:12:46;;;;;;;51.60;25.20;;;13.50;31.80;;;;;;4956561;28;20986;-86
2023/03/02 12:15:41;;;;;;;21.83;14.73;;;13.50;32.60;;;;;;4963294;28;20450;-87
2023/03/02 12:18:43;;;;;;;20.30;13.70;;;13.70;32.00;;;;;;4956097;28;20605;-86
2023/03/02 12:21:40;;;;;;;22.13;13.97;;;13.70;30.00;;;;;;4955126;28;20475;-86
2023/03/02 12:24:28;;;;;;;22.30;13.63;;;13.50;30.00;;;;;;4959255;28;20462;-86
2023/03/02 12:27:33;;;;;;;22.00;15.03;;;13.60;31.70;;;;;;4962207;23;20528;-74
2023/03/02 12:30:26;;;;;;;17.87;13.07;;;13.70;29.40;;;;;;4946520;28;20441;-74
2023/03/02 12:33:20;;;;;;;20.90;13.77;;;13.80;30.90;;;;;;4952108;28;20450;-74
2023/03/02 12:36:12;;;;;;;22.27;14.43;;;13.90;29.60;;;;;;4952464;28;21102;-74
2023/03/02 12:39:11;;;;;;;29.30;13.73;;;13.90;30.70;;;;;;4949250;28;20453;-73
2023/03/02 12:42:16;;;;;;;17.67;12.57;;;13.90;29.70;;;;;;4928270;23;20532;-89
2023/03/02 12:45:13;;;;;;;17.13;11.83;;;13.80;29.40;;;;;;4912228;29;20442;-89
2023/03/02 12:48:04;;;;;;;24.40;12.90;;;14.00;30.30;;;;;;4912986;29;20452;-90
2023/03/02 12:50:52;;;;;;;18.07;12.80;;;14.10;29.50;;;;;;4912316;29;20430;-90
2023/03/02 12:53:39;;;;;;;21.67;12.90;;;14.20;29.80;;;;;;4912795;29;20560;-89
2023/03/02 12:56:26;;;;;;;19.97;13.00;;;14.30;28.60;;;;;;4911752;29;20455;-87
2023/03/02 12:59:21;;;;;;;19.40;12.50;;;14.50;28.70;;;;;;4918560;29;20849;-87
2023/03/02 13:02:15;;;;;;;20.33;13.03;;;14.60;28.50;;;;;;4912724;29;20464;-87
2023/03/02 13:05:05;;;;;;;25.37;13.77;;;14.60;28.30;;;;;;4914299;29;20541;-87
2023/03/02 13:07:57;;;;;;;20.90;11.53;;;14.80;28.10;;;;;;4909890;29;20492;-88
2023/03/02 13:10:47;;;;;;;19.20;12.20;;;15.00;27.20;;;;;;4910344;29;20430;-88
2023/03/02 13:13:39;;;;;;;17.77;11.93;;;15.10;27.50;;;;;;4908228;29;20476;-90
2023/03/02 13:16:26;;;;;;;18.43;11.73;;;15.10;27.00;;;;;;4909472;29;20872;-90
2023/03/02 13:19:15;;;;;;;18.70;11.97;;;15.00;26.90;;;;;;4911513;29;20846;-91
2023/03/02 13:22:04;;;;;;;17.50;11.43;;;15.10;26.70;;;;;;4911352;29;20524;-90
2023/03/02 13:24:56;;;;;;;19.43;10.93;;;15.20;26.70;;;;;;4910531;29;20430;-90
2023/03/02 13:27:52;;;;;;;24.90;11.70;;;15.20;26.70;;;;;;4913039;29;20500;-90
2023/03/02 13:30:46;;;;;;;67.63;13.13;;;15.50;26.80;;;;;;4911348;29;20470;-90
2023/03/02 13:33:34;;;;;;;41.27;12.07;;;15.40;26.30;;;;;;4911223;29;20469;-89
2023/03/02 13:36:21;;;;;;;19.67;11.93;;;15.50;26.00;;;;;;4911666;29;20479;-88
2023/03/02 13:39:18;;;;;;;39.83;12.77;;;15.50;26.50;;;;;;4911908;29;20422;-88
2023/03/02 13:42:04;;;;;;;35.33;12.70;;;15.70;26.10;;;;;;4909099;29;20492;-89
2023/03/02 13:45:20;;;;;;;21.27;11.60;;;15.80;25.70;;;;;;4910036;29;20537;-89
2023/03/02 13:48:16;;;;;;;20.53;10.30;;;16.00;25.20;;;;;;4909103;29;20476;-88
2023/03/02 13:51:03;;;;;;;18.00;11.17;;;16.30;24.00;;;;;;4918034;29;20521;-88
2023/03/02 13:53:54;;;;;;;17.57;10.47;;;16.10;24.50;;;;;;4920782;29;20532;-89
2023/03/02 13:56:44;;;;;;;23.97;11.13;;;16.30;24.40;;;;;;4918870;29;20508;-88
2023/03/02 14:00:28;;;;;;;14.90;9.90;;;16.50;24.20;;;;;;4914450;29;20415;-89
2023/03/02 14:03:23;;;;;;;21.50;11.33;;;16.60;23.60;;;;;;4892793;29;20480;-87
2023/03/02 14:06:12;;;;;;;20.23;10.27;;;16.70;23.70;;;;;;4912641;29;20462;-88
2023/03/02 14:09:12;;;;;;;17.33;11.20;;;16.60;23.60;;;;;;4907982;29;20461;-89
2023/03/02 14:11:59;;;;;;;19.50;9.93;;;16.70;23.70;;;;;;4911657;29;20431;-89
2023/03/02 14:14:52;;;;;;;17.40;10.40;;;16.80;23.20;;;;;;4916959;29;20455;-89
2023/03/02 14:17:38;;;;;;;18.40;10.73;;;17.00;23.90;;;;;;4920901;29;20841;-87
2023/03/02 14:20:23;;;;;;;14.47;9.07;;;17.20;22.70;;;;;;4915042;29;20451;-89
2023/03/02 14:23:09;;;;;;;14.63;10.57;;;17.40;22.70;;;;;;4915945;29;20983;-89
2023/03/02 14:25:58;;;;;;;22.93;10.97;;;17.60;21.60;;;;;;4912269;29;20444;-89
2023/03/02 14:28:47;;;;;;;16.63;10.57;;;17.90;21.40;;;;;;4908631;29;20431;-88
2023/03/02 14:31:33;;;;;;;32.67;10.27;;;18.20;21.10;;;;;;4912942;29;21028;-88
2023/03/02 14:34:19;;;;;;;13.90;9.63;;;18.40;21.10;;;;;;4912853;29;20516;-88
2023/03/02 14:37:07;;;;;;;17.13;10.80;;;18.50;20.20;;;;;;4921197;29;20486;-89
2023/03/02 14:39:58;;;;;;;15.30;10.53;;;18.60;20.10;;;;;;4918631;29;20830;-88
2023/03/02 14:42:52;;;;;;;13.13;9.60;;;18.40;20.10;;;;;;4914002;29;20420;-90
2023/03/02 14:48:10;;;;;;;17.13;11.10;;;17.20;21.20;;;;;;5079468;23;20475;-72
2023/03/02 14:50:56;;;;;;;12.70;8.83;;;16.70;21.70;;;;;;4956541;28;20428;-72